Time;durP1;ratioP1;P1;durP2;ratioP2;P2;SDS_P1;SDS_P2;PMS_P1;PMS_P2;Temp;Humidity;BMP_temperature;BMP_pressure;BME280_temperature;BME280_humidity;BME280_pressure;Samples;Min_cycle;Max_cycle;Signal;HPM_P1;HPM_P2
2023/02/25 00:00:29;;;;;;;2.40;1.40;;;23.40;50.90;;;;;;5026692;28;20163;-70
2023/02/25 00:02:56;;;;;;;3.45;1.63;;;23.40;51.00;;;;;;5030983;28;20059;-70
2023/02/25 00:05:22;;;;;;;2.13;1.33;;;23.40;51.00;;;;;;5013590;28;20377;-70
2023/02/25 00:07:48;;;;;;;2.10;1.30;;;23.30;51.00;;;;;;5031305;28;20029;-70
2023/02/25 00:10:14;;;;;;;2.08;1.30;;;23.30;51.00;;;;;;5028815;28;20104;-70
2023/02/25 00:12:40;;;;;;;2.42;1.55;;;23.30;51.00;;;;;;5030835;28;20125;-70
2023/02/25 00:15:07;;;;;;;2.30;1.30;;;23.30;51.00;;;;;;5029931;28;20021;-70
2023/02/25 00:17:33;;;;;;;2.60;1.38;;;23.20;51.00;;;;;;5030934;28;20480;-70
2023/02/25 00:19:59;;;;;;;1.67;1.30;;;23.20;51.00;;;;;;5031008;28;20028;-70
2023/02/25 00:22:27;;;;;;;2.33;1.30;;;23.20;51.00;;;;;;5031092;28;20029;-70
2023/02/25 00:24:56;;;;;;;2.30;1.33;;;23.20;51.00;;;;;;5030013;28;20024;-70
2023/02/25 00:27:23;;;;;;;2.20;1.30;;;23.20;51.00;;;;;;5029672;28;20493;-70
2023/02/25 00:29:52;;;;;;;1.92;1.45;;;23.10;51.00;;;;;;5031092;28;20025;-71
2023/02/25 00:32:19;;;;;;;2.83;1.40;;;23.10;51.00;;;;;;5030272;28;20407;-71
2023/02/25 00:34:46;;;;;;;2.53;1.20;;;23.10;51.00;;;;;;5012587;28;20691;-70
2023/02/25 00:37:12;;;;;;;2.03;1.35;;;23.10;51.00;;;;;;5030767;28;20527;-70
2023/02/25 00:39:41;;;;;;;1.80;1.30;;;23.10;51.00;;;;;;5027262;28;20512;-69
2023/02/25 00:42:11;;;;;;;1.77;1.20;;;23.10;51.10;;;;;;5030582;28;20017;-70
2023/02/25 00:44:37;;;;;;;2.00;1.20;;;23.00;51.00;;;;;;5030094;28;20029;-70
2023/02/25 00:47:03;;;;;;;1.77;1.20;;;23.00;51.10;;;;;;5028571;28;20492;-70
2023/02/25 00:49:29;;;;;;;2.13;1.23;;;23.00;51.10;;;;;;5013058;28;20025;-70
2023/02/25 00:51:57;;;;;;;2.20;1.20;;;23.00;51.10;;;;;;5029328;28;20033;-70
2023/02/25 00:54:23;;;;;;;1.70;1.20;;;23.00;51.10;;;;;;5012704;28;20029;-70
2023/02/25 00:56:49;;;;;;;2.08;1.42;;;23.00;51.10;;;;;;5030259;28;20043;-70
2023/02/25 00:59:14;;;;;;;2.38;1.30;;;22.90;51.10;;;;;;5011664;28;20029;-70
2023/02/25 01:01:40;;;;;;;2.10;1.42;;;22.90;51.10;;;;;;5012221;28;20048;-70
2023/02/25 01:04:07;;;;;;;1.65;1.23;;;22.90;51.10;;;;;;5011362;28;20034;-70
2023/02/25 01:06:33;;;;;;;1.70;1.30;;;22.90;51.10;;;;;;5030560;28;20377;-70
2023/02/25 01:08:59;;;;;;;1.42;0.93;;;22.90;51.20;;;;;;5030357;28;20025;-70
2023/02/25 01:11:28;;;;;;;2.35;1.40;;;22.90;51.10;;;;;;5012609;28;20048;-70
2023/02/25 01:14:00;;;;;;;1.67;1.10;;;22.90;51.20;;;;;;5029764;28;20027;-70
2023/02/25 01:16:27;;;;;;;2.17;1.10;;;22.80;51.10;;;;;;5028572;28;20125;-70
2023/02/25 01:18:55;;;;;;;2.10;1.25;;;22.80;51.20;;;;;;5030103;28;20078;-70
2023/02/25 01:21:25;;;;;;;2.42;1.33;;;22.80;51.10;;;;;;5029892;28;20425;-70
2023/02/25 01:23:58;;;;;;;2.40;1.40;;;22.70;51.10;;;;;;5027958;28;20366;-70
2023/02/25 01:26:26;;;;;;;2.33;1.48;;;22.80;51.20;;;;;;5027662;28;20033;-70
2023/02/25 01:28:52;;;;;;;1.90;1.10;;;22.70;51.10;;;;;;5026976;28;20033;-71
2023/02/25 01:31:23;;;;;;;1.95;1.60;;;22.70;51.20;;;;;;5030193;28;20500;-71
2023/02/25 01:33:49;;;;;;;2.20;1.20;;;22.70;51.20;;;;;;5028673;28;20021;-70
2023/02/25 01:36:15;;;;;;;1.48;1.10;;;22.70;51.20;;;;;;5026766;28;20441;-70
2023/02/25 01:38:41;;;;;;;1.80;1.25;;;22.70;51.20;;;;;;5023732;28;20123;-70
2023/02/25 01:41:06;;;;;;;1.67;1.00;;;22.70;51.20;;;;;;5002398;28;20069;-71
2023/02/25 01:43:32;;;;;;;1.67;1.15;;;22.60;51.20;;;;;;5029806;28;20437;-71
2023/02/25 01:45:57;;;;;;;2.45;1.20;;;22.60;51.20;;;;;;5028758;28;20037;-70
2023/02/25 01:48:31;;;;;;;2.10;1.30;;;22.60;51.20;;;;;;5029400;28;20112;-71
2023/02/25 01:51:05;;;;;;;2.03;1.20;;;22.60;51.20;;;;;;5028858;28;20033;-71
2023/02/25 01:53:41;;;;;;;1.65;1.02;;;22.60;51.20;;;;;;5027816;28;20128;-71
2023/02/25 01:56:11;;;;;;;1.70;1.10;;;22.60;51.30;;;;;;5034244;28;20116;-71
2023/02/25 01:58:37;;;;;;;1.88;1.00;;;22.60;51.30;;;;;;5033228;28;20057;-71
2023/02/25 02:01:08;;;;;;;1.70;1.10;;;22.60;51.30;;;;;;5016344;28;20044;-71
2023/02/25 02:03:35;;;;;;;1.92;1.27;;;22.60;51.30;;;;;;5016149;28;20083;-71
2023/02/25 02:06:29;;;;;;;1.58;1.00;;;22.50;51.30;;;;;;5031995;28;20045;-71
2023/02/25 02:08:55;;;;;;;1.50;1.00;;;22.50;51.30;;;;;;5007450;28;20033;-71
2023/02/25 02:11:21;;;;;;;1.65;1.02;;;22.50;51.30;;;;;;5031996;28;20084;-71
2023/02/25 02:13:55;;;;;;;1.50;1.00;;;22.50;51.30;;;;;;5033244;28;20029;-71
2023/02/25 02:16:50;;;;;;;1.10;0.90;;;22.50;51.30;;;;;;5015389;28;20120;-71
2023/02/25 02:19:46;;;;;;;1.80;0.90;;;22.50;51.30;;;;;;5004310;28;20651;-71
2023/02/25 02:22:17;;;;;;;1.38;0.90;;;22.50;51.30;;;;;;5033298;28;20041;-71
2023/02/25 02:25:09;;;;;;;1.40;0.90;;;22.50;51.40;;;;;;5031709;28;20052;-71
2023/02/25 02:27:40;;;;;;;1.48;1.00;;;22.40;51.30;;;;;;5033165;28;20048;-71
2023/02/25 02:30:34;;;;;;;1.15;1.00;;;22.40;51.30;;;;;;5030363;28;20603;-70
2023/02/25 02:33:11;;;;;;;1.88;0.80;;;22.40;51.40;;;;;;5033131;28;20037;-70
2023/02/25 02:35:55;;;;;;;1.25;0.90;;;22.30;51.30;;;;;;5032017;28;20048;-71
2023/02/25 02:38:44;;;;;;;0.90;0.80;;;22.40;51.40;;;;;;5031707;28;20030;-71
2023/02/25 02:41:36;;;;;;;1.10;0.90;;;22.30;51.40;;;;;;5029650;28;20037;-71
2023/02/25 02:44:30;;;;;;;1.13;1.00;;;22.30;51.30;;;;;;5023075;28;20046;-71
2023/02/25 02:46:59;;;;;;;1.25;0.90;;;22.30;51.40;;;;;;5008133;28;20543;-71
2023/02/25 02:49:39;;;;;;;0.95;0.80;;;22.30;51.40;;;;;;5032995;28;20366;-71
2023/02/25 02:52:13;;;;;;;1.90;0.80;;;22.30;51.40;;;;;;5031263;28;20132;-71
2023/02/25 02:54:42;;;;;;;1.00;0.77;;;22.30;51.40;;;;;;5014574;28;20030;-71
2023/02/25 02:57:09;;;;;;;0.85;0.80;;;22.20;51.40;;;;;;5031059;28;20064;-71
2023/02/25 02:59:41;;;;;;;1.15;0.88;;;22.30;51.40;;;;;;5015290;28;20124;-71
2023/02/25 03:02:33;;;;;;;0.80;0.70;;;22.20;51.40;;;;;;5032088;28;20587;-71
2023/02/25 03:05:03;;;;;;;0.70;0.63;;;22.30;51.50;;;;;;5032820;28;20048;-71
2023/02/25 03:07:31;;;;;;;0.90;0.80;;;22.20;51.50;;;;;;5030139;28;20029;-71
2023/02/25 03:10:03;;;;;;;1.20;0.90;;;22.20;51.50;;;;;;5032717;28;20191;-71
2023/02/25 03:12:29;;;;;;;0.80;0.73;;;22.20;51.50;;;;;;5031902;28;20106;-71
2023/02/25 03:14:55;;;;;;;1.20;0.90;;;22.20;51.50;;;;;;5014868;28;20501;-71
2023/02/25 03:17:23;;;;;;;1.30;0.80;;;22.20;51.50;;;;;;5014360;28;20029;-71
2023/02/25 03:20:05;;;;;;;1.67;0.80;;;22.10;51.50;;;;;;5028373;28;20022;-71
2023/02/25 03:22:35;;;;;;;0.70;0.70;;;22.10;51.50;;;;;;5032330;28;20018;-70
2023/02/25 03:25:13;;;;;;;1.00;0.73;;;22.10;51.50;;;;;;5030160;28;20059;-71
2023/02/25 03:27:42;;;;;;;0.77;0.70;;;22.10;52.10;;;;;;5031754;28;20071;-71
2023/02/25 03:30:32;;;;;;;1.30;0.70;;;22.10;51.50;;;;;;5009080;28;20036;-70
2023/02/25 03:33:08;;;;;;;1.00;0.82;;;22.10;51.60;;;;;;5032145;28;20033;-69
2023/02/25 03:35:36;;;;;;;0.73;0.70;;;22.10;51.60;;;;;;5030536;28;20033;-69
2023/02/25 03:38:08;;;;;;;0.88;0.73;;;22.10;51.60;;;;;;5030256;28;20029;-69
2023/02/25 03:40:37;;;;;;;0.70;0.65;;;22.10;52.20;;;;;;5031590;28;20021;-69
2023/02/25 03:43:14;;;;;;;1.27;0.70;;;22.10;51.60;;;;;;5031829;28;20091;-70
2023/02/25 03:45:43;;;;;;;1.45;0.70;;;22.10;51.70;;;;;;5031980;28;20044;-70
2023/02/25 03:48:11;;;;;;;1.00;0.80;;;22.00;51.60;;;;;;5030993;28;20430;-70
2023/02/25 03:50:43;;;;;;;0.90;0.80;;;22.00;51.60;;;;;;5029817;28;20039;-69
2023/02/25 03:53:10;;;;;;;1.27;0.80;;;22.00;51.60;;;;;;5006412;28;20026;-70
2023/02/25 03:55:35;;;;;;;1.20;0.90;;;22.00;51.60;;;;;;5030149;28;20508;-69
2023/02/25 03:58:01;;;;;;;0.73;0.70;;;22.00;51.60;;;;;;5031227;28;20030;-70
2023/02/25 04:00:31;;;;;;;0.88;0.70;;;22.00;51.60;;;;;;5031267;28;20033;-70
2023/02/25 04:02:58;;;;;;;0.98;0.73;;;22.00;51.60;;;;;;5030803;28;20112;-70
2023/02/25 04:05:26;;;;;;;0.70;0.68;;;22.00;51.70;;;;;;5031228;28;20053;-70
2023/02/25 04:07:56;;;;;;;0.60;0.60;;;22.00;51.70;;;;;;5025954;28;20053;-70
2023/02/25 04:10:21;;;;;;;0.70;0.60;;;22.00;51.70;;;;;;5003125;28;20034;-70
2023/02/25 04:12:48;;;;;;;0.95;0.70;;;22.00;51.70;;;;;;5020694;28;20541;-70
2023/02/25 04:15:14;;;;;;;0.70;0.70;;;21.90;51.70;;;;;;5009489;28;20033;-70
2023/02/25 04:17:40;;;;;;;0.68;0.68;;;21.90;51.70;;;;;;5028160;28;20030;-70
2023/02/25 04:20:06;;;;;;;1.10;0.88;;;22.00;51.70;;;;;;5030998;28;20045;-70
2023/02/25 04:22:32;;;;;;;0.65;0.60;;;21.90;51.70;;;;;;5031171;28;20492;-70
2023/02/25 04:24:58;;;;;;;0.70;0.70;;;21.90;51.70;;;;;;5030376;28;20028;-70
2023/02/25 04:27:25;;;;;;;0.80;0.70;;;21.90;51.70;;;;;;5012292;28;20022;-70
2023/02/25 04:29:50;;;;;;;0.80;0.60;;;21.90;51.70;;;;;;5018701;28;20508;-70
2023/02/25 04:32:16;;;;;;;0.70;0.60;;;21.90;51.80;;;;;;5029319;28;20037;-70
2023/02/25 04:34:42;;;;;;;0.70;0.70;;;21.90;51.70;;;;;;5030675;28;20034;-70
2023/02/25 04:37:08;;;;;;;0.85;0.75;;;21.90;51.70;;;;;;5030879;28;20029;-70
2023/02/25 04:39:35;;;;;;;1.10;0.80;;;21.90;52.30;;;;;;5029640;28;20018;-69
2023/02/25 04:42:00;;;;;;;0.70;0.70;;;21.90;52.30;;;;;;5029813;28;20576;-70
2023/02/25 04:44:26;;;;;;;0.85;0.68;;;21.80;51.70;;;;;;5027880;28;20100;-69
2023/02/25 04:46:53;;;;;;;0.88;0.65;;;21.80;51.70;;;;;;5030267;28;20029;-70
2023/02/25 04:49:21;;;;;;;1.17;0.70;;;21.80;51.70;;;;;;5029895;28;20036;-70
2023/02/25 04:51:50;;;;;;;1.27;0.80;;;21.80;51.70;;;;;;5028034;28;20064;-69
2023/02/25 04:54:18;;;;;;;1.02;0.80;;;21.80;51.70;;;;;;5012874;28;20022;-70
2023/02/25 04:56:43;;;;;;;1.10;0.80;;;21.80;52.20;;;;;;5028745;28;20032;-70
2023/02/25 04:59:10;;;;;;;0.88;0.60;;;21.80;51.70;;;;;;5030463;28;20025;-70
2023/02/25 05:01:37;;;;;;;0.82;0.70;;;21.80;51.70;;;;;;5029023;28;20385;-69
2023/02/25 05:04:03;;;;;;;0.63;0.60;;;21.80;51.70;;;;;;5028715;28;20504;-70
2023/02/25 05:06:29;;;;;;;0.68;0.60;;;21.80;51.80;;;;;;5029550;28;20029;-69
2023/02/25 05:08:57;;;;;;;0.80;0.60;;;21.80;51.70;;;;;;5030460;28;20083;-69
2023/02/25 05:11:24;;;;;;;0.77;0.70;;;21.80;51.80;;;;;;5012632;28;20030;-70
2023/02/25 05:13:50;;;;;;;1.17;0.80;;;21.80;51.80;;;;;;5028727;28;20106;-70
2023/02/25 05:16:17;;;;;;;1.02;0.80;;;21.80;51.70;;;;;;5029116;28;20033;-70
2023/02/25 05:18:44;;;;;;;0.82;0.70;;;21.70;51.70;;;;;;5027779;28;20080;-70
2023/02/25 05:21:13;;;;;;;0.95;0.85;;;21.80;51.80;;;;;;5028197;28;20928;-70
2023/02/25 05:23:40;;;;;;;0.80;0.70;;;21.70;51.70;;;;;;5029169;28;20456;-70
2023/02/25 05:26:07;;;;;;;0.80;0.70;;;21.70;51.70;;;;;;5029919;28;20037;-70
2023/02/25 05:28:33;;;;;;;1.25;0.77;;;21.70;51.70;;;;;;5017085;28;20029;-70
2023/02/25 05:30:59;;;;;;;0.77;0.77;;;21.70;51.80;;;;;;5033387;28;20033;-70
2023/02/25 05:33:25;;;;;;;1.00;0.70;;;21.80;51.80;;;;;;5006366;28;20029;-70
2023/02/25 05:35:51;;;;;;;0.52;0.52;;;21.70;51.70;;;;;;5033221;28;20021;-70
2023/02/25 05:38:17;;;;;;;1.23;0.80;;;21.70;51.70;;;;;;5031733;28;20043;-70
2023/02/25 05:40:42;;;;;;;0.88;0.68;;;21.70;51.70;;;;;;5016343;28;20042;-70
2023/02/25 05:43:08;;;;;;;0.77;0.70;;;21.70;51.80;;;;;;5032904;28;20366;-70
2023/02/25 05:45:34;;;;;;;0.57;0.57;;;21.70;51.80;;;;;;5006691;28;20057;-70
2023/02/25 05:48:00;;;;;;;1.17;0.60;;;21.70;51.80;;;;;;5032298;28;20105;-69
2023/02/25 05:50:27;;;;;;;1.10;0.60;;;21.70;51.80;;;;;;5033933;28;20159;-69
2023/02/25 05:52:53;;;;;;;0.90;0.60;;;21.70;51.80;;;;;;5031249;28;20029;-69
2023/02/25 05:55:19;;;;;;;0.93;0.60;;;21.70;51.80;;;;;;5033972;28;20389;-69
2023/02/25 05:57:44;;;;;;;0.60;0.60;;;21.70;51.80;;;;;;5034091;28;20032;-70
2023/02/25 06:00:13;;;;;;;0.85;0.65;;;21.70;51.80;;;;;;5016292;28;20029;-70
2023/02/25 06:02:40;;;;;;;0.85;0.70;;;21.70;51.80;;;;;;5033499;28;20021;-71
2023/02/25 06:05:07;;;;;;;0.88;0.65;;;21.70;51.80;;;;;;5006777;28;20154;-70
2023/02/25 06:07:33;;;;;;;0.70;0.63;;;21.70;51.80;;;;;;5032968;28;20026;-71
2023/02/25 06:10:00;;;;;;;0.98;0.70;;;21.60;51.80;;;;;;5031484;28;20511;-71
2023/02/25 06:12:29;;;;;;;1.00;0.80;;;21.60;51.90;;;;;;5032987;28;20476;-72
2023/02/25 06:14:54;;;;;;;1.05;0.70;;;21.70;51.90;;;;;;5030022;28;20030;-71
2023/02/25 06:17:20;;;;;;;0.80;0.70;;;21.60;51.90;;;;;;5031359;28;20018;-71
2023/02/25 06:19:45;;;;;;;0.77;0.68;;;21.60;51.90;;;;;;5015796;28;20523;-71
2023/02/25 06:22:12;;;;;;;1.25;0.70;;;21.60;51.90;;;;;;5033356;28;20037;-71
2023/02/25 06:24:39;;;;;;;1.02;0.63;;;21.60;51.90;;;;;;5033009;28;20025;-71
2023/02/25 06:27:05;;;;;;;0.80;0.70;;;21.60;51.90;;;;;;5033515;28;20029;-71
2023/02/25 06:29:30;;;;;;;0.95;0.60;;;21.60;51.90;;;;;;5033372;28;20109;-71
2023/02/25 06:31:56;;;;;;;0.73;0.60;;;21.60;51.90;;;;;;5015110;28;20416;-71
2023/02/25 06:34:21;;;;;;;1.00;0.80;;;21.60;51.90;;;;;;5031117;28;20037;-71
2023/02/25 06:36:47;;;;;;;1.10;0.70;;;21.60;51.90;;;;;;5030520;28;20021;-72
2023/02/25 06:39:13;;;;;;;1.75;0.63;;;21.60;52.00;;;;;;5015199;28;20448;-71
2023/02/25 06:41:38;;;;;;;1.15;0.60;;;21.60;51.90;;;;;;5032919;28;20048;-71
2023/02/25 06:44:05;;;;;;;1.17;0.70;;;21.60;52.00;;;;;;5032841;28;20025;-71
2023/02/25 06:46:30;;;;;;;0.90;0.75;;;21.60;52.00;;;;;;5032111;28;20488;-71
2023/02/25 06:48:56;;;;;;;0.70;0.60;;;21.60;52.00;;;;;;5015437;28;20036;-71
2023/02/25 06:51:22;;;;;;;0.95;0.73;;;21.60;52.00;;;;;;5022482;28;20033;-71
2023/02/25 06:53:49;;;;;;;0.80;0.60;;;21.60;52.00;;;;;;5031480;28;20092;-71
2023/02/25 06:56:19;;;;;;;1.08;0.60;;;21.60;52.00;;;;;;5030825;28;20021;-71
2023/02/25 06:58:44;;;;;;;1.08;0.70;;;21.60;52.00;;;;;;5030689;28;20080;-71
2023/02/25 07:01:13;;;;;;;0.70;0.70;;;21.60;52.00;;;;;;5032497;28;20435;-71
2023/02/25 07:03:39;;;;;;;1.00;0.57;;;21.60;52.00;;;;;;5032494;28;20053;-71
2023/02/25 07:06:05;;;;;;;0.77;0.63;;;21.50;52.00;;;;;;5030042;28;20496;-72
2023/02/25 07:08:31;;;;;;;0.77;0.60;;;21.50;52.00;;;;;;5031428;28;20029;-71
2023/02/25 07:11:18;;;;;;;0.88;0.60;;;21.50;52.00;;;;;;5032269;28;20078;-71
2023/02/25 07:13:46;;;;;;;0.73;0.68;;;21.50;52.00;;;;;;5031639;28;20025;-71
2023/02/25 07:16:13;;;;;;;0.70;0.60;;;21.50;52.00;;;;;;5030819;28;20022;-71
2023/02/25 07:18:40;;;;;;;0.85;0.60;;;21.50;52.00;;;;;;5032402;28;20024;-70
2023/02/25 07:21:06;;;;;;;0.85;0.63;;;21.50;52.00;;;;;;5029320;28;20075;-71
2023/02/25 07:23:32;;;;;;;1.25;0.70;;;21.50;52.00;;;;;;5032343;28;20057;-70
2023/02/25 07:26:03;;;;;;;0.77;0.60;;;21.50;52.00;;;;;;5031264;28;20420;-68
2023/02/25 07:28:28;;;;;;;0.70;0.60;;;21.50;52.00;;;;;;5031794;28;20025;-70
2023/02/25 07:30:54;;;;;;;0.75;0.60;;;21.50;52.00;;;;;;5013029;28;20508;-69
2023/02/25 07:33:20;;;;;;;0.60;0.60;;;21.50;51.90;;;;;;5031891;28;20021;-70
2023/02/25 07:35:45;;;;;;;0.85;0.80;;;21.50;51.80;;;;;;5013123;28;20029;-70
2023/02/25 07:38:11;;;;;;;1.23;0.70;;;21.50;51.70;;;;;;5032355;28;20108;-71
2023/02/25 07:40:40;;;;;;;0.73;0.60;;;21.50;51.60;;;;;;5028421;28;20029;-70
2023/02/25 07:43:06;;;;;;;1.10;0.60;;;21.40;51.50;;;;;;5013680;28;20614;-70
2023/02/25 07:45:31;;;;;;;0.82;0.68;;;21.50;51.50;;;;;;5029690;28;20034;-70
2023/02/25 07:47:57;;;;;;;1.33;0.80;;;21.40;51.40;;;;;;5031779;28;20514;-70
2023/02/25 07:50:22;;;;;;;1.40;0.60;;;21.40;51.30;;;;;;5027836;28;20033;-70
2023/02/25 07:52:48;;;;;;;1.20;0.70;;;21.40;51.30;;;;;;5031461;28;20143;-70
2023/02/25 07:55:14;;;;;;;1.40;0.80;;;21.40;51.20;;;;;;5013651;28;20032;-70
2023/02/25 07:57:40;;;;;;;0.98;0.70;;;21.40;51.20;;;;;;5031290;28;20026;-70
2023/02/25 08:00:09;;;;;;;1.90;0.70;;;21.40;51.10;;;;;;5031671;28;20033;-70
2023/02/25 08:02:36;;;;;;;0.82;0.70;;;21.40;51.10;;;;;;5030089;28;20152;-71
2023/02/25 08:05:02;;;;;;;1.15;0.70;;;21.40;51.60;;;;;;5026004;28;20092;-70
2023/02/25 08:07:29;;;;;;;0.95;0.57;;;21.40;51.00;;;;;;5031505;28;20447;-70
2023/02/25 08:09:54;;;;;;;0.80;0.57;;;21.40;50.90;;;;;;5029647;28;20331;-70
2023/02/25 08:12:20;;;;;;;0.93;0.80;;;21.40;50.90;;;;;;5031493;28;20032;-70
2023/02/25 08:14:45;;;;;;;0.95;0.68;;;21.40;50.80;;;;;;5030883;28;20150;-70
2023/02/25 08:17:12;;;;;;;0.80;0.63;;;21.40;50.80;;;;;;5030208;28;20028;-70
2023/02/25 08:19:38;;;;;;;1.08;0.70;;;21.40;50.80;;;;;;5029599;28;20018;-70
2023/02/25 08:22:04;;;;;;;1.02;0.60;;;21.40;50.80;;;;;;5029484;28;20107;-70
2023/02/25 08:24:31;;;;;;;1.90;0.90;;;21.40;50.80;;;;;;5031160;28;20026;-70
2023/02/25 08:26:57;;;;;;;1.23;0.65;;;21.30;50.80;;;;;;5031185;28;20079;-70
2023/02/25 08:29:23;;;;;;;0.80;0.70;;;21.30;50.80;;;;;;5031119;28;20033;-70
2023/02/25 08:31:50;;;;;;;0.70;0.57;;;21.30;50.90;;;;;;5029441;28;20469;-70
2023/02/25 08:34:17;;;;;;;0.77;0.50;;;21.30;50.90;;;;;;5028238;28;20049;-70
2023/02/25 08:36:42;;;;;;;1.05;0.60;;;21.30;50.90;;;;;;5030400;28;20437;-69
2023/02/25 08:39:09;;;;;;;0.68;0.65;;;21.30;51.00;;;;;;5029769;28;20025;-70
2023/02/25 08:41:35;;;;;;;1.23;0.70;;;21.30;51.00;;;;;;5029513;28;20088;-70
2023/02/25 08:44:01;;;;;;;0.85;0.55;;;21.30;51.00;;;;;;5029776;28;20113;-70
2023/02/25 08:46:29;;;;;;;0.52;0.43;;;21.30;51.00;;;;;;5029138;28;20384;-71
2023/02/25 08:48:55;;;;;;;0.60;0.50;;;21.30;51.10;;;;;;5012561;28;20627;-71
2023/02/25 08:51:23;;;;;;;1.38;0.70;;;21.30;51.10;;;;;;5011687;28;20080;-71
2023/02/25 08:53:49;;;;;;;1.27;0.80;;;21.30;51.10;;;;;;5026736;28;20048;-71
2023/02/25 08:56:16;;;;;;;0.82;0.60;;;21.30;51.20;;;;;;5029540;28;20014;-71
2023/02/25 08:58:42;;;;;;;0.60;0.50;;;21.30;51.20;;;;;;5028771;28;20025;-72
2023/02/25 09:01:11;;;;;;;0.77;0.63;;;21.30;51.20;;;;;;5029168;28;20029;-72
2023/02/25 09:03:38;;;;;;;1.05;0.60;;;21.30;51.30;;;;;;5028372;28;20025;-71
2023/02/25 09:06:04;;;;;;;0.60;0.50;;;21.30;51.20;;;;;;5025263;28;20041;-71
2023/02/25 09:08:30;;;;;;;1.05;0.60;;;21.30;51.20;;;;;;5029512;28;20087;-71
2023/02/25 09:10:56;;;;;;;0.70;0.60;;;21.30;51.30;;;;;;5012504;28;20482;-71
2023/02/25 09:13:21;;;;;;;1.00;0.60;;;21.30;51.40;;;;;;5012453;28;20025;-71
2023/02/25 09:15:56;;;;;;;0.73;0.50;;;21.30;51.30;;;;;;5017489;28;20021;-72
2023/02/25 09:18:21;;;;;;;1.02;0.50;;;21.30;51.60;;;;;;5026026;28;20080;-71
2023/02/25 09:20:50;;;;;;;0.88;0.60;;;21.20;51.30;;;;;;5027964;28;20138;-71
2023/02/25 09:23:16;;;;;;;1.17;0.63;;;21.30;51.40;;;;;;5011500;28;20029;-72
2023/02/25 09:25:43;;;;;;;1.05;0.60;;;21.20;51.40;;;;;;5029768;28;20041;-71
2023/02/25 09:28:09;;;;;;;0.68;0.50;;;21.20;51.40;;;;;;5028164;28;20394;-72
2023/02/25 09:30:35;;;;;;;0.93;0.50;;;21.20;51.40;;;;;;5012539;28;20026;-72
2023/02/25 09:33:01;;;;;;;0.57;0.40;;;21.20;51.50;;;;;;5029855;28;20026;-72
2023/02/25 09:35:26;;;;;;;1.42;0.70;;;21.20;51.50;;;;;;5012757;28;20061;-71
2023/02/25 09:37:52;;;;;;;0.85;0.50;;;21.30;51.60;;;;;;5030250;28;20033;-71
2023/02/25 09:40:21;;;;;;;0.50;0.50;;;21.20;51.50;;;;;;5030315;28;20495;-72
2023/02/25 09:43:27;;;;;;;0.77;0.65;;;21.20;51.50;;;;;;5010092;28;20449;-72
2023/02/25 09:46:01;;;;;;;0.73;0.60;;;21.20;51.50;;;;;;5029562;28;20041;-72
2023/02/25 09:48:39;;;;;;;1.23;0.60;;;21.20;51.60;;;;;;5028938;28;20510;-72
2023/02/25 09:51:22;;;;;;;0.73;0.50;;;21.20;51.60;;;;;;5029416;28;20028;-72
2023/02/25 09:54:05;;;;;;;0.55;0.50;;;21.20;51.70;;;;;;5008671;28;20029;-72
2023/02/25 09:56:33;;;;;;;0.77;0.50;;;21.20;51.60;;;;;;5030351;28;20036;-72
2023/02/25 09:58:59;;;;;;;1.02;0.60;;;21.20;51.70;;;;;;5028693;28;20056;-71
2023/02/25 10:01:33;;;;;;;0.95;0.68;;;21.20;51.70;;;;;;5028680;28;20045;-72
2023/02/25 10:04:23;;;;;;;0.63;0.50;;;21.20;51.70;;;;;;5028895;28;20374;-71
2023/02/25 10:06:51;;;;;;;0.60;0.50;;;21.20;51.80;;;;;;5029846;28;20385;-72
2023/02/25 10:09:30;;;;;;;0.63;0.40;;;21.20;51.80;;;;;;5029283;28;20939;-72
2023/02/25 10:12:15;;;;;;;1.15;0.60;;;21.20;51.80;;;;;;5028116;28;20064;-72
2023/02/25 10:15:04;;;;;;;0.80;0.50;;;21.20;51.80;;;;;;5032415;28;20033;-72
2023/02/25 10:17:48;;;;;;;0.77;0.50;;;21.20;51.90;;;;;;5030665;28;20022;-72
2023/02/25 10:20:41;;;;;;;0.73;0.57;;;21.20;51.90;;;;;;5033035;28;20476;-72
2023/02/25 10:23:41;;;;;;;1.30;0.60;;;21.20;51.90;;;;;;5032513;28;20021;-72
2023/02/25 10:26:23;;;;;;;0.63;0.50;;;21.20;52.00;;;;;;5032188;28;20060;-72
2023/02/25 10:28:54;;;;;;;1.05;0.60;;;21.20;52.00;;;;;;5023657;28;20033;-72
2023/02/25 10:31:21;;;;;;;0.82;0.50;;;21.20;52.00;;;;;;5006866;28;20030;-72
2023/02/25 10:33:49;;;;;;;1.30;0.70;;;21.10;52.00;;;;;;5032501;28;20064;-72
2023/02/25 10:36:40;;;;;;;1.13;0.50;;;21.20;52.00;;;;;;5032175;28;20044;-72
2023/02/25 10:39:09;;;;;;;0.90;0.60;;;21.20;52.10;;;;;;5032363;28;20096;-72
2023/02/25 10:41:35;;;;;;;0.77;0.45;;;21.20;52.10;;;;;;5033136;28;20056;-72
2023/02/25 10:44:01;;;;;;;0.95;0.60;;;21.20;52.20;;;;;;5030854;28;20477;-72
2023/02/25 10:46:46;;;;;;;1.27;0.50;;;21.20;52.20;;;;;;5030131;28;20433;-72
2023/02/25 10:49:19;;;;;;;0.98;0.55;;;21.20;52.20;;;;;;5030555;28;20047;-72
2023/02/25 10:52:09;;;;;;;0.80;0.60;;;21.20;52.20;;;;;;5030726;28;20523;-71
2023/02/25 10:54:49;;;;;;;1.48;0.50;;;21.20;52.20;;;;;;5029114;28;20073;-72
2023/02/25 10:57:16;;;;;;;;;;;21.20;52.20;;;;;;5021446;28;20473;-72
2023/02/25 10:59:44;;;;;;;0.73;0.50;;;21.20;52.20;;;;;;5031274;28;19916;-72
2023/02/25 11:02:22;;;;;;;0.93;0.60;;;21.20;52.20;;;;;;5032652;28;20048;-72
2023/02/25 11:04:51;;;;;;;1.02;0.60;;;21.20;52.20;;;;;;5014943;28;20576;-72
2023/02/25 11:07:29;;;;;;;0.57;0.50;;;21.20;52.20;;;;;;5006949;28;20033;-72
2023/02/25 11:10:20;;;;;;;0.80;0.60;;;21.20;52.30;;;;;;5031369;28;20033;-72
2023/02/25 11:12:48;;;;;;;0.85;0.70;;;21.20;52.30;;;;;;5031712;28;20033;-72
2023/02/25 11:15:26;;;;;;;0.63;0.50;;;21.20;52.30;;;;;;5014899;28;20025;-72
2023/02/25 11:18:03;;;;;;;0.40;0.40;;;21.20;52.30;;;;;;5032082;28;20108;-72
2023/02/25 11:20:31;;;;;;;0.60;0.50;;;21.20;52.30;;;;;;5014556;28;20036;-72
2023/02/25 11:22:57;;;;;;;0.45;0.40;;;21.20;52.30;;;;;;5029559;28;20025;-72
2023/02/25 11:25:36;;;;;;;1.17;0.55;;;21.20;52.80;;;;;;5014591;28;20026;-73
2023/02/25 11:28:03;;;;;;;1.83;0.50;;;21.20;52.30;;;;;;5031443;28;20022;-72
2023/02/25 11:30:33;;;;;;;1.67;0.50;;;21.20;52.40;;;;;;5014411;28;20026;-72
2023/02/25 11:33:01;;;;;;;0.45;0.40;;;21.20;52.40;;;;;;5029421;28;20064;-72
2023/02/25 11:35:34;;;;;;;1.25;0.60;;;21.20;52.40;;;;;;5032121;28;20124;-71
2023/02/25 11:38:13;;;;;;;0.85;0.52;;;21.20;52.40;;;;;;5012457;28;20022;-71
2023/02/25 11:40:43;;;;;;;;;;;21.20;52.40;;;;;;5029361;28;20022;-71
2023/02/25 11:43:19;;;;;;;0.40;0.40;;;21.20;52.40;;;;;;5031335;28;19986;-71
2023/02/25 11:46:01;;;;;;;0.55;0.52;;;21.20;52.40;;;;;;5029635;28;20036;-71
2023/02/25 11:48:46;;;;;;;1.13;0.50;;;21.20;52.50;;;;;;5030183;28;20029;-71
2023/02/25 11:51:20;;;;;;;0.95;0.50;;;21.20;52.50;;;;;;5033807;28;20033;-71
2023/02/25 11:53:56;;;;;;;2.30;0.85;;;21.20;53.30;;;;;;5031501;28;20017;-71
2023/02/25 11:56:29;;;;;;;1.73;0.73;;;21.20;53.20;;;;;;5030042;28;20163;-71
2023/02/25 11:59:28;;;;;;;0.60;0.45;;;21.20;53.10;;;;;;5031202;28;20025;-71
2023/02/25 12:01:54;;;;;;;;;;;21.30;53.20;;;;;;5032374;28;20034;-71
2023/02/25 12:04:41;;;;;;;1.65;0.90;;;21.30;53.10;;;;;;5031910;28;19913;-71
2023/02/25 12:07:09;;;;;;;1.67;0.80;;;21.40;53.30;;;;;;5032584;28;20036;-71
2023/02/25 12:10:10;;;;;;;1.90;0.80;;;21.40;53.00;;;;;;5032596;28;20041;-72
2023/02/25 12:12:45;;;;;;;1.05;0.70;;;21.50;53.10;;;;;;5022373;28;20422;-71
2023/02/25 12:15:47;;;;;;;1.45;0.70;;;21.50;52.90;;;;;;5031502;28;20104;-72
2023/02/25 12:18:24;;;;;;;1.77;0.60;;;21.50;53.20;;;;;;5030297;28;20255;-72
2023/02/25 12:21:24;;;;;;;0.75;0.50;;;21.50;53.10;;;;;;5013404;28;20065;-72
2023/02/25 12:23:52;;;;;;;1.60;0.70;;;21.60;53.20;;;;;;5031466;28;20025;-72
2023/02/25 12:27:01;;;;;;;1.27;0.80;;;21.60;53.00;;;;;;5031138;28;20472;-73
2023/02/25 12:29:50;;;;;;;1.67;0.90;;;21.70;53.00;;;;;;5013282;28;20038;-72
2023/02/25 12:32:35;;;;;;;;;;;21.70;52.90;;;;;;5031005;28;20374;-71
2023/02/25 12:35:06;;;;;;;2.08;0.80;;;21.70;52.80;;;;;;5257194;22;20333;-65
2023/02/25 12:38:08;;;;;;;2.22;0.73;;;21.70;52.80;;;;;;5027570;28;20025;-65
2023/02/25 12:40:51;;;;;;;1.55;0.60;;;21.80;52.90;;;;;;5029652;28;20379;-64
2023/02/25 12:43:35;;;;;;;1.00;0.65;;;21.80;52.90;;;;;;5025445;28;20035;-65
2023/02/25 12:46:14;;;;;;;1.30;0.70;;;21.80;52.80;;;;;;5028826;28;20021;-65
2023/02/25 12:49:17;;;;;;;1.02;0.57;;;21.90;52.80;;;;;;5029192;28;20025;-65
2023/02/25 12:51:46;;;;;;;1.92;0.80;;;21.90;52.80;;;;;;5029746;28;20123;-65
2023/02/25 12:54:33;;;;;;;3.17;1.10;;;21.90;52.80;;;;;;5029928;28;20175;-65
2023/02/25 12:57:42;;;;;;;2.05;1.00;;;22.00;52.80;;;;;;5029325;28;20488;-64
2023/02/25 13:00:19;;;;;;;2.90;1.13;;;22.00;52.70;;;;;;5029229;28;20455;-65
2023/02/25 13:03:14;;;;;;;3.17;1.00;;;22.00;52.50;;;;;;5028320;28;20480;-64
2023/02/25 13:06:01;;;;;;;2.80;1.20;;;22.00;52.40;;;;;;5027624;28;20021;-64
2023/02/25 13:08:55;;;;;;;2.03;1.02;;;22.10;52.20;;;;;;5029033;28;20483;-64